createdAt,value
2023-02-25T00:01:08.410Z,3.16
2023-02-25T00:03:36.440Z,3.19
2023-02-25T00:06:03.648Z,3.19
2023-02-25T00:08:30.369Z,3.18
2023-02-25T00:11:01.461Z,3.19
2023-02-25T00:13:28.334Z,3.21
2023-02-25T00:15:58.091Z,3.18
2023-02-25T00:18:28.628Z,3.19
2023-02-25T00:20:55.060Z,3.22
2023-02-25T00:23:21.490Z,3.21
2023-02-25T00:25:48.355Z,3.19
2023-02-25T00:28:15.111Z,3.16
2023-02-25T00:30:45.265Z,3.09
2023-02-25T00:33:11.769Z,3.09
2023-02-25T00:35:41.293Z,3.03
2023-02-25T00:38:15.861Z,3.02
2023-02-25T00:40:43.059Z,3.02
2023-02-25T00:43:09.691Z,2.99
2023-02-25T00:45:39.391Z,2.97
2023-02-25T00:48:06.244Z,2.93
2023-02-25T00:50:33.025Z,2.89
2023-02-25T00:52:59.698Z,2.87
2023-02-25T00:55:33.636Z,2.83
2023-02-25T00:58:01.556Z,2.83
2023-02-25T01:00:29.149Z,2.83
2023-02-25T01:02:57.711Z,2.80
2023-02-25T01:05:24.885Z,2.80
2023-02-25T01:07:51.576Z,2.80
2023-02-25T01:10:19.197Z,2.82
2023-02-25T01:12:46.048Z,2.79
2023-02-25T01:15:14.562Z,2.80
2023-02-25T01:17:41.221Z,2.78
2023-02-25T01:20:12.414Z,2.76
2023-02-25T01:22:41.708Z,2.71
2023-02-25T01:25:12.162Z,2.72
2023-02-25T01:27:39.087Z,2.69
2023-02-25T01:30:06.873Z,2.67
2023-02-25T01:32:33.829Z,2.69
2023-02-25T01:35:00.383Z,2.70
2023-02-25T01:37:26.970Z,2.68
2023-02-25T01:39:53.768Z,2.68
2023-02-25T01:42:20.303Z,2.70
2023-02-25T01:45:11.597Z,2.66
2023-02-25T01:47:40.098Z,2.67
2023-02-25T01:50:07.477Z,2.67
2023-02-25T01:52:34.106Z,2.68
2023-02-25T01:55:00.626Z,2.68
2023-02-25T01:57:27.046Z,2.70
2023-02-25T01:59:55.111Z,2.69
2023-02-25T02:02:24.480Z,2.66
2023-02-25T02:04:53.034Z,2.69
2023-02-25T02:07:21.940Z,2.67
2023-02-25T02:09:57.587Z,2.68
2023-02-25T02:12:31.764Z,2.68
2023-02-25T02:15:00.699Z,2.66
2023-02-25T02:17:33.502Z,2.66
2023-02-25T02:20:13.021Z,2.69
2023-02-25T02:22:43.722Z,2.70
2023-02-25T02:25:16.156Z,2.71
2023-02-25T02:28:04.943Z,2.69
2023-02-25T02:30:40.558Z,2.67
2023-02-25T02:33:32.111Z,2.67
2023-02-25T02:36:08.309Z,2.69
2023-02-25T02:38:51.832Z,2.69
2023-02-25T02:41:33.674Z,2.67
2023-02-25T02:44:07.841Z,2.67
2023-02-25T02:46:39.102Z,2.68
2023-02-25T02:49:05.497Z,2.69
2023-02-25T02:51:38.496Z,2.69
2023-02-25T02:54:07.729Z,2.68
2023-02-25T02:56:37.471Z,2.70
2023-02-25T02:59:10.299Z,2.68
2023-02-25T03:01:51.391Z,2.73
2023-02-25T03:04:25.228Z,2.73
2023-02-25T03:06:57.629Z,2.72
2023-02-25T03:09:32.643Z,2.72
2023-02-25T03:11:59.144Z,2.75
2023-02-25T03:14:25.637Z,2.74
2023-02-25T03:17:02.270Z,2.78
2023-02-25T03:19:52.509Z,2.78
2023-02-25T03:22:31.845Z,2.75
2023-02-25T03:25:10.755Z,2.76
2023-02-25T03:27:39.665Z,2.75
2023-02-25T03:30:15.085Z,2.77
2023-02-25T03:32:47.166Z,2.79
2023-02-25T03:35:16.327Z,2.80
2023-02-25T03:37:46.246Z,2.79
2023-02-25T03:40:15.167Z,2.78
2023-02-25T03:42:50.465Z,2.78
2023-02-25T03:45:17.143Z,2.81
2023-02-25T03:47:43.983Z,2.81
2023-02-25T03:50:15.657Z,2.81
2023-02-25T03:52:42.428Z,2.87
2023-02-25T03:55:10.282Z,2.85
2023-02-25T03:57:42.136Z,2.85
2023-02-25T04:00:30.945Z,2.83
2023-02-25T04:02:57.977Z,2.84
2023-02-25T04:05:28.232Z,2.84
2023-02-25T04:07:56.307Z,2.86
2023-02-25T04:10:22.861Z,2.85
2023-02-25T04:12:52.655Z,2.87
2023-02-25T04:15:20.391Z,2.88
2023-02-25T04:17:47.200Z,2.85
2023-02-25T04:20:16.332Z,2.85
2023-02-25T04:22:43.301Z,2.84
2023-02-25T04:25:09.947Z,2.85
2023-02-25T04:27:36.438Z,2.85
2023-02-25T04:30:03.091Z,2.82
2023-02-25T04:32:29.717Z,2.85
2023-02-25T04:34:57.627Z,2.84
2023-02-25T04:37:24.049Z,2.82
2023-02-25T04:39:50.483Z,2.83
2023-02-25T04:42:16.906Z,2.84
2023-02-25T04:44:43.318Z,2.87
2023-02-25T04:47:09.775Z,2.84
2023-02-25T04:49:44.757Z,2.85
2023-02-25T04:52:13.168Z,2.86
2023-02-25T04:54:39.959Z,2.85
2023-02-25T04:57:07.527Z,2.88
2023-02-25T04:59:33.999Z,2.87
2023-02-25T05:02:01.028Z,2.88
2023-02-25T05:04:27.725Z,2.88
2023-02-25T05:06:54.226Z,2.89
2023-02-25T05:09:21.282Z,2.86
2023-02-25T05:11:47.846Z,2.87
2023-02-25T05:14:14.315Z,2.89
2023-02-25T05:16:40.825Z,2.87
2023-02-25T05:19:07.345Z,2.88
2023-02-25T05:21:33.801Z,2.87
2023-02-25T05:24:00.264Z,2.87
2023-02-25T05:26:26.840Z,2.86
2023-02-25T05:28:56.178Z,2.88
2023-02-25T05:31:24.710Z,2.86
2023-02-25T05:33:52.209Z,2.86
2023-02-25T05:36:18.737Z,2.87
2023-02-25T05:38:45.602Z,2.85
2023-02-25T05:41:13.293Z,2.84
2023-02-25T05:43:40.158Z,2.83
2023-02-25T05:46:11.731Z,2.86
2023-02-25T05:48:42.598Z,2.86
2023-02-25T05:51:12.880Z,2.84
2023-02-25T05:53:39.500Z,2.87
2023-02-25T05:56:07.990Z,2.83
2023-02-25T05:58:35.040Z,2.84
2023-02-25T06:01:11.440Z,2.84
2023-02-25T06:03:38.819Z,2.83
2023-02-25T06:06:06.305Z,2.79
2023-02-25T06:08:33.582Z,2.79
2023-02-25T06:11:01.788Z,2.80
2023-02-25T06:13:28.356Z,2.79
2023-02-25T06:15:54.843Z,2.79
2023-02-25T06:18:21.702Z,2.80
2023-02-25T06:20:48.144Z,2.81
2023-02-25T06:23:14.626Z,2.80
2023-02-25T06:25:41.078Z,2.80
2023-02-25T06:28:07.609Z,2.80
2023-02-25T06:30:34.118Z,2.84
2023-02-25T06:33:00.614Z,2.86
2023-02-25T06:35:27.133Z,2.85
2023-02-25T06:37:59.113Z,2.87
2023-02-25T06:40:26.818Z,2.87
2023-02-25T06:42:53.302Z,2.89
2023-02-25T06:45:19.955Z,2.88
2023-02-25T06:47:46.505Z,2.89
2023-02-25T06:50:13.450Z,2.88
2023-02-25T06:52:40.492Z,2.88
2023-02-25T06:55:07.571Z,2.92
2023-02-25T06:57:34.693Z,2.93
2023-02-25T07:00:01.575Z,2.91
2023-02-25T07:02:28.225Z,2.92
2023-02-25T07:04:54.978Z,2.95
2023-02-25T07:07:22.531Z,2.93
2023-02-25T07:09:49.026Z,2.96
2023-02-25T07:12:15.582Z,2.98
2023-02-25T07:14:42.068Z,2.98
2023-02-25T07:17:08.506Z,3.00
2023-02-25T07:19:35.348Z,3.04
2023-02-25T07:22:02.032Z,3.03
2023-02-25T07:24:28.595Z,3.02
2023-02-25T07:26:55.587Z,3.05
2023-02-25T07:29:22.820Z,3.06
2023-02-25T07:31:49.595Z,3.11
2023-02-25T07:34:16.183Z,3.12
2023-02-25T07:36:43.790Z,3.16
2023-02-25T07:39:12.131Z,3.18
2023-02-25T07:41:38.934Z,3.15
2023-02-25T07:44:06.576Z,3.16
2023-02-25T07:46:33.943Z,3.19
2023-02-25T07:49:00.449Z,3.26
2023-02-25T07:51:27.074Z,3.35
2023-02-25T07:53:55.596Z,3.39
2023-02-25T07:56:24.043Z,3.52
2023-02-25T07:58:50.792Z,3.56
2023-02-25T08:01:29.503Z,3.66
2023-02-25T08:03:58.842Z,3.69
2023-02-25T08:06:26.259Z,3.80
2023-02-25T08:08:54.561Z,3.87
2023-02-25T08:11:22.978Z,3.85
2023-02-25T08:13:49.934Z,3.86
2023-02-25T08:16:18.957Z,3.92
2023-02-25T08:18:46.941Z,3.84
2023-02-25T08:21:15.857Z,3.80
2023-02-25T08:23:42.305Z,3.84
2023-02-25T08:26:11.508Z,3.90
2023-02-25T08:28:38.012Z,3.92
2023-02-25T08:31:07.901Z,3.91
2023-02-25T08:33:34.459Z,3.91
2023-02-25T08:36:16.081Z,3.96
2023-02-25T08:38:42.883Z,4.07
2023-02-25T08:41:09.459Z,4.20
2023-02-25T08:43:37.074Z,4.35
2023-02-25T08:46:04.370Z,4.42
2023-02-25T08:48:30.804Z,4.40
2023-02-25T08:51:02.720Z,4.38
2023-02-25T08:53:29.153Z,4.28
2023-02-25T08:55:55.552Z,4.25
2023-02-25T08:58:22.039Z,4.33
2023-02-25T09:00:50.041Z,4.34
2023-02-25T09:03:16.853Z,4.33
2023-02-25T09:05:43.709Z,4.35
2023-02-25T09:08:10.214Z,4.36
2023-02-25T09:10:49.538Z,4.29
2023-02-25T09:13:17.253Z,4.31
2023-02-25T09:15:43.704Z,4.30
2023-02-25T09:18:11.649Z,4.34
2023-02-25T09:20:38.104Z,4.34
2023-02-25T09:23:04.556Z,4.31
2023-02-25T09:25:30.975Z,4.31
2023-02-25T09:27:57.384Z,4.35
2023-02-25T09:30:23.927Z,4.37
2023-02-25T09:32:50.530Z,4.37
2023-02-25T09:35:17.213Z,4.40
2023-02-25T09:37:43.747Z,4.37
2023-02-25T09:40:17.093Z,4.37
2023-02-25T09:42:53.538Z,4.37
2023-02-25T09:45:24.937Z,4.32
2023-02-25T09:47:58.711Z,4.34
2023-02-25T09:50:46.611Z,4.39
2023-02-25T09:53:26.015Z,4.49
2023-02-25T09:55:53.150Z,4.52
2023-02-25T09:58:41.479Z,4.55
2023-02-25T10:01:10.951Z,4.61
2023-02-25T10:03:58.574Z,4.67
2023-02-25T10:06:35.195Z,4.78
2023-02-25T10:09:09.584Z,4.83
2023-02-25T10:11:58.008Z,4.94
2023-02-25T10:14:51.691Z,5.16
2023-02-25T10:17:21.063Z,5.22
2023-02-25T10:20:18.789Z,5.28
2023-02-25T10:23:06.735Z,5.43
2023-02-25T10:25:39.196Z,5.51
2023-02-25T10:28:16.374Z,5.47
2023-02-25T10:31:06.764Z,5.48
2023-02-25T10:33:42.919Z,5.58
2023-02-25T10:36:14.946Z,5.63
2023-02-25T10:38:48.659Z,5.35
2023-02-25T10:41:16.257Z,5.30
2023-02-25T10:43:44.477Z,5.24
2023-02-25T10:46:23.259Z,5.20
2023-02-25T10:49:00.859Z,5.26
2023-02-25T10:51:29.635Z,5.26
2023-02-25T10:53:56.075Z,5.35
2023-02-25T10:56:25.651Z,5.35
2023-02-25T10:59:39.291Z,5.31
2023-02-25T11:02:21.220Z,5.26
2023-02-25T11:04:49.603Z,4.96
2023-02-25T11:07:30.477Z,4.42
2023-02-25T11:10:19.430Z,4.29
2023-02-25T11:12:53.058Z,3.87
2023-02-25T11:15:41.625Z,3.97
2023-02-25T11:18:21.892Z,4.01
2023-02-25T11:21:00.654Z,3.92
2023-02-25T11:23:45.719Z,3.83
2023-02-25T11:26:34.066Z,3.91
2023-02-25T11:29:05.069Z,4.23
2023-02-25T11:31:36.765Z,4.61
2023-02-25T11:34:12.616Z,4.99
2023-02-25T11:36:39.960Z,5.10
2023-02-25T11:39:27.887Z,5.39
2023-02-25T11:41:57.719Z,5.57
2023-02-25T11:44:31.785Z,5.76
2023-02-25T11:46:58.155Z,5.81
2023-02-25T11:49:51.364Z,5.79
2023-02-25T11:52:44.265Z,5.86
2023-02-25T11:55:51.441Z,5.88
2023-02-25T11:58:44.590Z,6.01
2023-02-25T12:01:13.919Z,6.40
2023-02-25T12:04:34.697Z,6.83
2023-02-25T12:07:15.241Z,7.19
2023-02-25T12:09:56.772Z,7.49
2023-02-25T12:12:41.310Z,7.92
2023-02-25T12:15:23.649Z,7.91
2023-02-25T12:18:23.392Z,8.31
2023-02-25T12:21:12.852Z,8.13
2023-02-25T12:24:17.288Z,8.32
2023-02-25T12:26:52.822Z,8.48
2023-02-25T12:29:43.594Z,8.57
2023-02-25T12:32:43.734Z,8.29
2023-02-25T12:35:39.738Z,8.04
2023-02-25T12:38:29.401Z,7.79
2023-02-25T12:41:07.838Z,7.83
2023-02-25T12:44:13.383Z,8.08
2023-02-25T12:46:59.032Z,8.22
2023-02-25T12:50:22.696Z,8.33
2023-02-25T12:52:58.095Z,8.38
2023-02-25T12:55:44.101Z,8.57
2023-02-25T12:58:26.857Z,8.76
2023-02-25T13:00:53.306Z,9.07
2023-02-25T13:03:54.373Z,9.20
2023-02-25T13:06:53.197Z,9.07
2023-02-25T13:09:37.899Z,9.17
2023-02-25T13:12:29.808Z,9.06
2023-02-25T13:15:20.641Z,8.43
2023-02-25T13:18:11.533Z,8.14
2023-02-25T13:21:01.242Z,7.96
2023-02-25T13:23:56.446Z,7.49
2023-02-25T13:26:47.370Z,7.34
2023-02-25T13:29:25.727Z,7.67
2023-02-25T13:32:08.671Z,7.39
2023-02-25T13:34:48.083Z,7.37
2023-02-25T13:37:23.766Z,7.55
2023-02-25T13:40:02.596Z,7.67
2023-02-25T13:42:46.091Z,7.81
2023-02-25T13:45:51.141Z,7.95
2023-02-25T13:48:35.461Z,7.77
2023-02-25T13:51:14.018Z,7.76
2023-02-25T13:53:53.234Z,7.69
2023-02-25T13:56:34.858Z,7.70
2023-02-25T13:59:16.660Z,7.71
2023-02-25T14:01:46.041Z,7.87
2023-02-25T14:04:35.022Z,7.79
2023-02-25T14:07:10.405Z,7.71
2023-02-25T14:09:53.395Z,7.75
2023-02-25T14:12:57.577Z,7.97
2023-02-25T14:15:52.129Z,8.02
2023-02-25T14:18:47.484Z,8.15
2023-02-25T14:21:39.934Z,8.05
2023-02-25T14:24:16.675Z,7.99
2023-02-25T14:26:49.554Z,8.12
2023-02-25T14:29:42.826Z,8.16
2023-02-25T14:32:24.511Z,7.96
2023-02-25T14:35:24.732Z,8.05
2023-02-25T14:38:17.930Z,8.19
2023-02-25T14:41:08.946Z,8.33
2023-02-25T14:43:36.628Z,8.27
2023-02-25T14:46:15.430Z,8.38
2023-02-25T14:48:46.453Z,8.42
2023-02-25T14:51:36.083Z,8.45
2023-02-25T14:54:34.874Z,8.23
2023-02-25T14:57:32.534Z,8.15
2023-02-25T15:00:23.462Z,7.96
2023-02-25T15:03:17.688Z,8.05
2023-02-25T15:05:54.509Z,8.27
2023-02-25T15:08:33.132Z,8.23
2023-02-25T15:11:05.692Z,8.06
2023-02-25T15:14:06.245Z,7.99
2023-02-25T15:17:00.689Z,7.96
2023-02-25T15:19:37.941Z,7.94
2023-02-25T15:22:29.460Z,7.78
2023-02-25T15:25:37.848Z,7.76
2023-02-25T15:28:30.097Z,7.88
2023-02-25T15:31:00.315Z,7.87
2023-02-25T15:33:37.418Z,7.57
2023-02-25T15:36:16.354Z,7.27
2023-02-25T15:38:56.495Z,7.14
2023-02-25T15:41:29.106Z,7.04
2023-02-25T15:44:01.047Z,6.74
2023-02-25T15:46:33.534Z,6.54
2023-02-25T15:49:30.297Z,6.40
2023-02-25T15:52:00.828Z,6.39
2023-02-25T15:54:27.668Z,6.36
2023-02-25T15:56:55.863Z,6.18
2023-02-25T15:59:43.809Z,6.01
2023-02-25T16:02:35.137Z,5.85
2023-02-25T16:05:17.350Z,5.73
2023-02-25T16:07:47.275Z,5.70
2023-02-25T16:10:32.521Z,5.67
2023-02-25T16:13:00.955Z,5.65
2023-02-25T16:15:42.046Z,5.53
2023-02-25T16:18:15.128Z,5.52
2023-02-25T16:20:48.268Z,5.45
2023-02-25T16:23:15.840Z,5.47
2023-02-25T16:26:10.239Z,5.35
2023-02-25T16:28:55.863Z,5.14
2023-02-25T16:31:33.269Z,5.12
2023-02-25T16:34:09.775Z,5.08
2023-02-25T16:36:45.363Z,5.02
2023-02-25T16:39:18.350Z,5.00
2023-02-25T16:41:45.004Z,4.96
2023-02-25T16:44:20.411Z,4.86
2023-02-25T16:46:51.420Z,4.76
2023-02-25T16:49:28.569Z,4.73
2023-02-25T16:51:55.174Z,4.69
2023-02-25T16:54:33.223Z,4.63
2023-02-25T16:57:02.909Z,4.57
2023-02-25T16:59:34.353Z,4.52
2023-02-25T17:02:22.401Z,4.49
2023-02-25T17:04:51.452Z,4.40
2023-02-25T17:07:20.004Z,4.28
2023-02-25T17:09:53.764Z,4.22
2023-02-25T17:12:36.782Z,4.19
2023-02-25T17:15:12.955Z,4.05
2023-02-25T17:17:41.167Z,4.04
2023-02-25T17:20:15.377Z,3.95
2023-02-25T17:22:44.134Z,3.87
2023-02-25T17:25:17.758Z,3.86
2023-02-25T17:27:47.421Z,3.82
2023-02-25T17:30:33.243Z,3.79
2023-02-25T17:32:59.922Z,3.76
2023-02-25T17:35:27.860Z,3.79
2023-02-25T17:37:56.082Z,3.70
2023-02-25T17:40:26.872Z,3.65
2023-02-25T17:43:26.089Z,3.58
2023-02-25T17:46:13.956Z,3.51
2023-02-25T17:48:43.345Z,3.48
2023-02-25T17:51:10.601Z,3.42
2023-02-25T17:54:09.703Z,3.39
2023-02-25T17:56:36.680Z,3.32
2023-02-25T17:59:28.027Z,3.28
2023-02-25T18:01:56.521Z,3.21
2023-02-25T18:04:36.755Z,3.16
2023-02-25T18:07:29.824Z,3.11
2023-02-25T18:09:57.349Z,3.05
2023-02-25T18:12:27.846Z,2.98
2023-02-25T18:14:58.481Z,2.92
2023-02-25T18:17:35.746Z,2.85
2023-02-25T18:20:06.719Z,2.79
2023-02-25T18:22:33.060Z,2.70
2023-02-25T18:25:02.568Z,2.69
2023-02-25T18:27:33.674Z,2.63
2023-02-25T18:30:18.052Z,2.53
2023-02-25T18:32:45.787Z,2.49
2023-02-25T18:35:12.207Z,2.48
2023-02-25T18:37:39.252Z,2.47
2023-02-25T18:40:07.071Z,2.45
2023-02-25T18:42:33.562Z,2.46
2023-02-25T18:45:00.021Z,2.37
2023-02-25T18:47:29.612Z,2.39
2023-02-25T18:49:56.046Z,2.39
2023-02-25T18:52:25.160Z,2.40
2023-02-25T18:54:51.592Z,2.41
2023-02-25T18:57:22.357Z,2.35
2023-02-25T18:59:49.108Z,2.34
2023-02-25T19:02:23.120Z,2.31
2023-02-25T19:04:49.648Z,2.25
2023-02-25T19:07:16.109Z,2.26
2023-02-25T19:09:42.563Z,2.23
2023-02-25T19:12:13.691Z,2.19
2023-02-25T19:14:41.735Z,2.17
2023-02-25T19:17:16.129Z,2.12
2023-02-25T19:19:46.407Z,2.09
2023-02-25T19:22:15.287Z,2.06
2023-02-25T19:24:47.907Z,2.06
2023-02-25T19:27:23.181Z,2.05
2023-02-25T19:29:51.869Z,2.02
2023-02-25T19:32:19.710Z,1.99
2023-02-25T19:34:47.663Z,1.97
2023-02-25T19:37:16.162Z,1.92
2023-02-25T19:39:43.116Z,1.98
2023-02-25T19:42:10.619Z,1.97
2023-02-25T19:44:37.146Z,1.93
2023-02-25T19:47:04.516Z,1.89
2023-02-25T19:49:31.086Z,1.85
2023-02-25T19:51:57.570Z,1.83
2023-02-25T19:54:26.131Z,1.79
2023-02-25T19:56:52.632Z,1.73
2023-02-25T19:59:19.108Z,1.71
2023-02-25T20:01:47.063Z,1.71
2023-02-25T20:04:13.500Z,1.65
2023-02-25T20:06:39.934Z,1.59
2023-02-25T20:09:08.997Z,1.53
2023-02-25T20:11:35.779Z,1.46
2023-02-25T20:14:03.962Z,1.43
2023-02-25T20:16:31.909Z,1.40
2023-02-25T20:18:58.480Z,1.37
2023-02-25T20:21:26.422Z,1.33
2023-02-25T20:23:53.274Z,1.33
2023-02-25T20:26:23.004Z,1.33
2023-02-25T20:28:53.979Z,1.29
2023-02-25T20:31:21.505Z,1.29
2023-02-25T20:33:50.156Z,1.26
2023-02-25T20:36:31.255Z,1.20
2023-02-25T20:39:21.699Z,1.05
2023-02-25T20:41:48.373Z,1.00
2023-02-25T20:44:16.574Z,0.95
2023-02-25T20:46:43.681Z,1.04
2023-02-25T20:49:15.941Z,1.04
2023-02-25T20:51:44.770Z,0.99
2023-02-25T20:54:12.189Z,1.00
2023-02-25T20:56:39.947Z,0.94
2023-02-25T20:59:06.760Z,0.94
2023-02-25T21:01:33.439Z,0.79
2023-02-25T21:04:00.152Z,0.85
2023-02-25T21:06:27.548Z,0.88
2023-02-25T21:08:54.850Z,0.83
2023-02-25T21:11:23.947Z,0.79
2023-02-25T21:13:51.572Z,0.72
2023-02-25T21:16:19.652Z,0.72
2023-02-25T21:18:47.326Z,0.72
2023-02-25T21:21:16.207Z,0.72
2023-02-25T21:23:43.410Z,0.67
2023-02-25T21:26:11.757Z,0.63
2023-02-25T21:28:40.910Z,0.59
2023-02-25T21:31:10.862Z,0.55
2023-02-25T21:33:38.891Z,0.51
2023-02-25T21:36:07.217Z,0.46
2023-02-25T21:38:34.189Z,0.43
2023-02-25T21:41:06.914Z,0.36
2023-02-25T21:43:33.641Z,0.35
2023-02-25T21:46:02.663Z,0.32
2023-02-25T21:48:31.276Z,0.29
2023-02-25T21:50:58.559Z,0.26
2023-02-25T21:53:27.494Z,0.14
2023-02-25T21:55:55.469Z,0.19
2023-02-25T21:58:22.830Z,0.09
2023-02-25T22:00:50.079Z,0.16
2023-02-25T22:03:17.089Z,0.13
2023-02-25T22:05:45.858Z,0.11
2023-02-25T22:08:12.998Z,0.10
2023-02-25T22:10:40.780Z,0.08
2023-02-25T22:13:08.448Z,0.11
2023-02-25T22:15:35.482Z,0.11
2023-02-25T22:18:02.221Z,0.09
2023-02-25T22:20:28.729Z,0.13
2023-02-25T22:22:57.752Z,0.10
2023-02-25T22:25:24.253Z,-0.02
2023-02-25T22:27:52.059Z,0.09
2023-02-25T22:30:19.270Z,0.03
2023-02-25T22:32:45.757Z,0.09
2023-02-25T22:35:12.305Z,-0.13
2023-02-25T22:37:38.822Z,0.12
2023-02-25T22:40:06.029Z,0.08
2023-02-25T22:42:32.465Z,0.10
2023-02-25T22:44:58.900Z,0.06
2023-02-25T22:47:25.522Z,0.10
2023-02-25T22:49:52.007Z,-0.14
2023-02-25T22:52:18.466Z,0.06
2023-02-25T22:54:46.052Z,0.05
2023-02-25T22:57:12.535Z,0.04
2023-02-25T22:59:38.972Z,0.05
2023-02-25T23:02:05.444Z,0.06
2023-02-25T23:04:32.784Z,-0.14
2023-02-25T23:07:00.926Z,0.04
2023-02-25T23:09:27.532Z,0.05
2023-02-25T23:11:54.615Z,0.03
2023-02-25T23:14:21.096Z,0.02
2023-02-25T23:16:47.712Z,0.02
2023-02-25T23:19:19.675Z,0.00
2023-02-25T23:21:46.180Z,-0.04
2023-02-25T23:24:19.005Z,-0.11
2023-02-25T23:26:47.616Z,-0.05
2023-02-25T23:29:14.456Z,-0.02
2023-02-25T23:31:46.909Z,-0.02
2023-02-25T23:34:20.185Z,-0.07
2023-02-25T23:36:47.296Z,-0.14
2023-02-25T23:39:15.415Z,-0.06
2023-02-25T23:41:42.299Z,-0.05
2023-02-25T23:44:09.566Z,-0.10
2023-02-25T23:46:37.294Z,-0.06
2023-02-25T23:49:06.571Z,-0.06
2023-02-25T23:51:33.875Z,-0.16
2023-02-25T23:54:03.237Z,-0.07
2023-02-25T23:56:31.165Z,-0.15
2023-02-25T23:58:57.710Z,-0.12
